createdAt,value
2018-05-21T00:00:50.027Z,21.50
2018-05-21T00:03:17.573Z,21.50
2018-05-21T00:05:45.075Z,21.50
2018-05-21T00:08:12.595Z,21.50
2018-05-21T00:10:40.118Z,21.50
2018-05-21T00:13:08.393Z,21.50
2018-05-21T00:15:37.627Z,21.60
2018-05-21T00:18:05.143Z,21.50
2018-05-21T00:20:32.674Z,21.50
2018-05-21T00:23:00.182Z,21.50
2018-05-21T00:25:27.717Z,21.50
2018-05-21T00:27:55.999Z,21.60
2018-05-21T00:30:24.275Z,21.60
2018-05-21T00:32:52.564Z,21.50
2018-05-21T00:35:20.064Z,21.50
2018-05-21T00:37:47.608Z,21.50
2018-05-21T00:40:15.111Z,21.50
2018-05-21T00:42:42.645Z,21.50
2018-05-21T00:45:11.111Z,21.60
2018-05-21T00:47:38.619Z,21.60
2018-05-21T00:50:08.887Z,21.60
2018-05-21T00:52:36.399Z,21.50
2018-05-21T00:55:16.726Z,21.60
2018-05-21T00:57:45.187Z,21.50
2018-05-21T01:00:12.722Z,21.60
2018-05-21T01:02:40.227Z,21.60
2018-05-21T01:05:07.750Z,21.60
2018-05-21T01:07:35.252Z,21.50
2018-05-21T01:10:02.776Z,21.60
2018-05-21T01:12:30.277Z,21.60
2018-05-21T01:14:58.569Z,21.50
2018-05-21T01:17:27.046Z,21.60
2018-05-21T01:19:54.575Z,21.60
2018-05-21T01:22:22.859Z,21.60
2018-05-21T01:24:51.124Z,21.60
2018-05-21T01:27:19.424Z,21.60
2018-05-21T01:29:46.922Z,21.50
2018-05-21T01:32:14.449Z,21.60
2018-05-21T01:34:41.977Z,21.50
2018-05-21T01:37:10.272Z,21.60
2018-05-21T01:39:37.791Z,21.50
2018-05-21T01:42:05.320Z,21.50
2018-05-21T01:44:32.851Z,21.50
2018-05-21T01:47:00.388Z,21.60
2018-05-21T01:49:29.591Z,21.50
2018-05-21T01:51:57.891Z,21.60
2018-05-21T01:54:25.474Z,21.50
2018-05-21T01:56:52.997Z,21.60
2018-05-21T01:59:20.532Z,21.60
2018-05-21T02:01:48.820Z,21.60
2018-05-21T02:04:16.344Z,21.50
2018-05-21T02:06:45.628Z,21.60
2018-05-21T02:09:13.177Z,21.50
2018-05-21T02:11:40.695Z,21.60
2018-05-21T02:14:08.215Z,21.60
2018-05-21T02:16:36.509Z,21.60
2018-05-21T02:19:04.805Z,21.50
2018-05-21T02:21:32.331Z,21.50
2018-05-21T02:24:00.638Z,21.50
2018-05-21T02:26:28.156Z,21.50
2018-05-21T02:28:55.698Z,21.60
2018-05-21T02:31:25.185Z,21.60
2018-05-21T02:33:52.727Z,21.60
2018-05-21T02:36:20.253Z,21.60
2018-05-21T02:38:50.519Z,21.60
2018-05-21T02:41:18.046Z,21.50
2018-05-21T02:43:45.609Z,21.60
2018-05-21T02:46:13.149Z,21.60
2018-05-21T02:48:41.443Z,21.60
2018-05-21T02:51:08.980Z,21.50
2018-05-21T02:53:39.233Z,21.60
2018-05-21T02:56:06.783Z,21.60
2018-05-21T02:58:35.208Z,21.60
2018-05-21T03:01:02.729Z,21.60
2018-05-21T03:03:30.256Z,21.60
2018-05-21T03:05:58.548Z,21.60
2018-05-21T03:08:26.072Z,21.50
2018-05-21T03:10:53.600Z,21.60
2018-05-21T03:13:21.236Z,21.60
2018-05-21T03:15:48.774Z,21.50
2018-05-21T03:18:16.296Z,21.60
2018-05-21T03:20:46.584Z,21.50
2018-05-21T03:23:14.133Z,21.50
2018-05-21T03:25:41.664Z,21.50
2018-05-21T03:28:10.000Z,21.50
2018-05-21T03:30:39.509Z,21.50
2018-05-21T03:33:07.071Z,21.50
2018-05-21T03:35:34.610Z,21.50
2018-05-21T03:38:02.149Z,21.50
2018-05-21T03:40:29.687Z,21.50
2018-05-21T03:42:57.229Z,21.50
2018-05-21T03:45:25.508Z,21.50
2018-05-21T03:47:53.799Z,21.50
2018-05-21T03:50:21.311Z,21.50
2018-05-21T03:52:48.834Z,21.50
2018-05-21T03:55:16.352Z,21.50
2018-05-21T03:57:44.656Z,21.50
2018-05-21T04:00:25.074Z,21.50
2018-05-21T04:03:05.216Z,21.50
2018-05-21T04:05:35.615Z,21.50
2018-05-21T04:08:03.135Z,21.50
2018-05-21T04:10:30.665Z,21.50
2018-05-21T04:12:58.192Z,21.50
2018-05-21T04:15:25.721Z,21.50
2018-05-21T04:17:53.248Z,21.50
2018-05-21T04:20:21.541Z,21.50
2018-05-21T04:22:49.059Z,21.50
2018-05-21T04:25:17.354Z,21.50
2018-05-21T04:27:45.647Z,21.50
2018-05-21T04:30:13.217Z,21.50
2018-05-21T04:32:40.743Z,21.50
2018-05-21T04:35:11.001Z,21.50
2018-05-21T04:37:38.517Z,21.50
2018-05-21T04:40:06.806Z,21.50
2018-05-21T04:42:35.112Z,21.50
2018-05-21T04:45:02.637Z,21.40
2018-05-21T04:47:30.936Z,21.50
2018-05-21T04:49:58.464Z,21.50
2018-05-21T04:52:26.747Z,21.50
2018-05-21T04:54:56.996Z,21.50
2018-05-21T04:57:24.518Z,21.40
2018-05-21T04:59:54.765Z,21.50
2018-05-21T05:02:22.298Z,21.40
2018-05-21T05:04:55.498Z,21.50
2018-05-21T05:07:23.784Z,21.50
2018-05-21T05:09:51.301Z,21.40
2018-05-21T05:12:19.597Z,21.50
2018-05-21T05:14:47.879Z,21.40
2018-05-21T05:17:16.182Z,21.50
2018-05-21T05:19:43.716Z,21.40
2018-05-21T05:22:12.015Z,21.50
2018-05-21T05:24:40.487Z,21.40
2018-05-21T05:27:08.023Z,21.50
2018-05-21T05:29:36.321Z,21.50
2018-05-21T05:32:03.862Z,21.40
2018-05-21T05:34:32.148Z,21.50
2018-05-21T05:37:02.484Z,21.40
2018-05-21T05:39:30.018Z,21.50
2018-05-21T05:41:57.609Z,21.50
2018-05-21T05:44:25.860Z,21.50
2018-05-21T05:46:53.396Z,21.40
2018-05-21T05:49:21.694Z,21.50
2018-05-21T05:51:49.221Z,21.40
2018-05-21T05:54:17.519Z,21.50
2018-05-21T05:56:45.054Z,21.50
2018-05-21T05:59:12.585Z,21.50
2018-05-21T06:01:42.056Z,21.50
2018-05-21T06:04:09.595Z,21.50
2018-05-21T06:06:37.145Z,21.40
2018-05-21T06:09:05.452Z,21.50
2018-05-21T06:11:32.984Z,21.40
2018-05-21T06:14:00.503Z,21.50
2018-05-21T06:16:28.033Z,21.50
2018-05-21T06:18:55.583Z,21.50
2018-05-21T06:21:23.833Z,21.50
2018-05-21T06:23:51.356Z,21.50
2018-05-21T06:26:19.623Z,21.50
2018-05-21T06:28:47.161Z,21.40
2018-05-21T06:31:14.696Z,21.50
2018-05-21T06:33:42.221Z,21.50
2018-05-21T06:36:12.476Z,21.50
2018-05-21T06:38:45.922Z,21.50
2018-05-21T06:41:14.227Z,21.50
2018-05-21T06:43:41.748Z,21.50
2018-05-21T06:46:09.281Z,21.50
2018-05-21T06:48:36.796Z,21.50
2018-05-21T06:51:05.185Z,21.50
2018-05-21T06:53:32.728Z,21.50
2018-05-21T06:56:01.021Z,21.50
2018-05-21T06:58:28.569Z,21.50
2018-05-21T07:00:56.117Z,21.50
2018-05-21T07:03:24.424Z,21.50
2018-05-21T07:05:51.962Z,21.50
2018-05-21T07:08:19.495Z,21.50
2018-05-21T07:10:47.021Z,21.50
2018-05-21T07:13:16.069Z,21.50
2018-05-21T07:15:43.592Z,21.50
2018-05-21T07:18:12.669Z,21.50
2018-05-21T07:20:40.195Z,21.50
2018-05-21T07:23:07.725Z,21.50
2018-05-21T07:25:36.023Z,21.50
2018-05-21T07:28:03.563Z,21.50
2018-05-21T07:30:31.857Z,21.50
2018-05-21T07:32:59.388Z,21.50
2018-05-21T07:35:27.695Z,21.50
2018-05-21T07:37:55.231Z,21.50
2018-05-21T07:40:22.763Z,21.50
2018-05-21T07:42:51.793Z,21.50
2018-05-21T07:45:19.329Z,21.50
2018-05-21T07:47:47.641Z,21.50
2018-05-21T07:50:15.168Z,21.50
2018-05-21T07:52:43.460Z,21.50
2018-05-21T07:55:11.075Z,21.50
2018-05-21T07:57:38.560Z,21.50
2018-05-21T08:00:06.092Z,21.50
2018-05-21T08:02:34.379Z,21.60
2018-05-21T08:05:02.688Z,21.50
2018-05-21T08:07:30.219Z,21.50
2018-05-21T08:09:58.521Z,21.60
2018-05-21T08:12:28.034Z,21.50
2018-05-21T08:14:55.616Z,21.60
2018-05-21T08:17:23.108Z,21.60
2018-05-21T08:19:51.406Z,21.60
2018-05-21T08:22:19.060Z,21.50
2018-05-21T08:24:47.247Z,21.50
2018-05-21T08:27:14.780Z,21.60
2018-05-21T08:29:45.042Z,21.50
2018-05-21T08:32:12.560Z,21.50
2018-05-21T08:34:40.851Z,21.60
2018-05-21T08:37:08.385Z,21.50
2018-05-21T08:39:36.684Z,21.60
2018-05-21T08:42:04.215Z,21.60
2018-05-21T08:44:32.520Z,21.60
2018-05-21T08:47:00.049Z,21.60
2018-05-21T08:49:28.351Z,21.60
2018-05-21T08:51:55.881Z,21.60
2018-05-21T08:54:23.408Z,21.60
2018-05-21T08:56:50.933Z,21.60
2018-05-21T08:59:18.484Z,21.60
2018-05-21T09:01:46.011Z,21.60
2018-05-21T09:04:14.295Z,21.60
2018-05-21T09:06:42.583Z,21.60
2018-05-21T09:09:10.112Z,21.60
2018-05-21T09:11:37.671Z,21.60
2018-05-21T09:14:05.979Z,21.60
2018-05-21T09:16:33.679Z,21.60
2018-05-21T09:19:01.181Z,21.60
2018-05-21T09:21:29.462Z,21.60
2018-05-21T09:23:57.773Z,21.60
2018-05-21T09:26:25.289Z,21.60
2018-05-21T09:28:53.595Z,21.60
2018-05-21T09:31:21.156Z,21.60
2018-05-21T09:33:48.656Z,21.70
2018-05-21T09:36:16.956Z,21.60
2018-05-21T09:38:44.589Z,21.60
2018-05-21T09:41:12.141Z,21.70
2018-05-21T09:43:39.665Z,21.60
2018-05-21T09:46:07.163Z,21.70
2018-05-21T09:48:36.213Z,21.70
2018-05-21T09:51:03.769Z,21.70
2018-05-21T09:53:31.291Z,21.70
2018-05-21T09:55:59.569Z,21.70
2018-05-21T09:58:28.832Z,21.70
2018-05-21T10:00:57.257Z,21.70
2018-05-21T10:03:25.523Z,21.70
2018-05-21T10:05:55.761Z,21.70
2018-05-21T10:08:23.264Z,21.70
2018-05-21T10:10:50.783Z,21.70
2018-05-21T10:13:18.301Z,21.70
2018-05-21T10:15:45.843Z,21.70
2018-05-21T10:18:13.356Z,21.70
2018-05-21T10:20:40.884Z,21.70
2018-05-21T10:23:09.184Z,21.70
2018-05-21T10:25:36.695Z,21.70
2018-05-21T10:28:04.228Z,21.70
2018-05-21T10:30:31.737Z,21.70
2018-05-21T10:33:00.038Z,21.70
2018-05-21T10:35:27.549Z,21.70
2018-05-21T10:37:55.072Z,21.70
2018-05-21T10:40:22.595Z,21.70
2018-05-21T10:42:50.083Z,21.70
2018-05-21T10:45:17.606Z,21.70
2018-05-21T10:47:45.133Z,21.70
2018-05-21T10:50:12.705Z,21.70
2018-05-21T10:52:40.976Z,21.70
2018-05-21T10:55:08.525Z,21.70
2018-05-21T10:57:36.473Z,21.70
2018-05-21T11:00:04.892Z,21.70
2018-05-21T11:02:33.192Z,21.70
2018-05-21T11:05:01.646Z,21.70
2018-05-21T11:07:29.919Z,21.70
2018-05-21T11:09:58.225Z,21.70
2018-05-21T11:12:25.734Z,21.70
2018-05-21T11:14:53.270Z,21.70
2018-05-21T11:17:21.005Z,21.70
2018-05-21T11:19:48.576Z,21.70
2018-05-21T11:22:16.076Z,21.70
2018-05-21T11:24:43.651Z,21.70
2018-05-21T11:27:11.163Z,21.70
2018-05-21T11:29:38.685Z,21.70
2018-05-21T11:32:06.189Z,21.70
2018-05-21T11:34:34.650Z,21.70
2018-05-21T11:37:02.183Z,21.70
2018-05-21T11:39:29.688Z,21.70
2018-05-21T11:41:58.776Z,21.70
2018-05-21T11:44:26.285Z,21.70
2018-05-21T11:46:53.796Z,21.70
2018-05-21T11:49:21.319Z,21.70
2018-05-21T11:51:48.830Z,21.70
2018-05-21T11:54:17.137Z,21.70
2018-05-21T11:56:45.580Z,21.70
2018-05-21T11:59:14.143Z,21.70
2018-05-21T12:01:43.501Z,21.70
2018-05-21T12:04:11.340Z,21.70
2018-05-21T12:06:39.131Z,21.70
2018-05-21T12:09:06.994Z,21.70
2018-05-21T12:11:34.969Z,21.70
2018-05-21T12:14:04.567Z,21.70
2018-05-21T12:16:32.120Z,21.70
2018-05-21T12:18:59.632Z,21.70
2018-05-21T12:21:27.150Z,21.70
2018-05-21T12:23:54.699Z,21.70
2018-05-21T12:26:22.199Z,21.70
2018-05-21T12:28:53.208Z,21.70
2018-05-21T12:31:20.737Z,21.70
2018-05-21T12:33:48.248Z,21.70
2018-05-21T12:36:15.763Z,21.70
2018-05-21T12:38:43.283Z,21.70
2018-05-21T12:41:11.563Z,21.70
2018-05-21T12:43:39.857Z,21.70
2018-05-21T12:46:07.373Z,21.70
2018-05-21T12:48:36.855Z,21.70
2018-05-21T12:51:04.354Z,21.70
2018-05-21T12:53:32.628Z,21.70
2018-05-21T12:56:00.913Z,21.70
2018-05-21T12:58:29.523Z,21.70
2018-05-21T13:00:57.246Z,21.70
2018-05-21T13:03:24.701Z,21.70
2018-05-21T13:05:53.967Z,21.70
2018-05-21T13:08:21.480Z,21.70
2018-05-21T13:10:48.984Z,21.70
2018-05-21T13:13:16.500Z,21.70
2018-05-21T13:15:44.021Z,21.70
2018-05-21T13:18:12.321Z,21.70
2018-05-21T13:20:39.836Z,21.80
2018-05-21T13:23:07.360Z,21.80
2018-05-21T13:25:34.864Z,21.80
2018-05-21T13:28:03.242Z,21.70
2018-05-21T13:30:30.747Z,21.70
2018-05-21T13:32:58.335Z,21.80
2018-05-21T13:35:25.842Z,21.80
2018-05-21T13:37:53.432Z,21.80
2018-05-21T13:40:20.966Z,21.80
2018-05-21T13:42:48.500Z,21.80
2018-05-21T13:45:16.810Z,21.80
2018-05-21T13:47:45.705Z,21.80
2018-05-21T13:50:14.304Z,21.80
2018-05-21T13:52:41.865Z,21.80
2018-05-21T13:55:09.405Z,21.80
2018-05-21T13:57:36.919Z,21.80
2018-05-21T14:00:05.351Z,21.80
2018-05-21T14:02:33.759Z,21.80
2018-05-21T14:05:02.060Z,21.80
2018-05-21T14:07:30.362Z,21.80
2018-05-21T14:09:57.933Z,21.80
2018-05-21T14:12:26.382Z,21.80
2018-05-21T14:14:53.896Z,21.80
2018-05-21T14:17:21.552Z,21.80
2018-05-21T14:19:48.974Z,21.80
2018-05-21T14:22:16.517Z,21.80
2018-05-21T14:24:44.083Z,21.80
2018-05-21T14:27:11.621Z,21.80
2018-05-21T14:29:39.917Z,21.90
2018-05-21T14:32:07.430Z,21.90
2018-05-21T14:34:34.951Z,21.90
2018-05-21T14:37:04.551Z,21.90
2018-05-21T14:39:32.065Z,21.90
2018-05-21T14:42:00.344Z,21.90
2018-05-21T14:44:28.632Z,21.90
2018-05-21T14:46:57.120Z,21.90
2018-05-21T14:49:24.652Z,21.90
2018-05-21T14:51:52.931Z,21.90
2018-05-21T14:54:21.243Z,21.90
2018-05-21T14:56:48.748Z,21.90
2018-05-21T14:59:17.044Z,21.90
2018-05-21T15:01:45.757Z,21.90
2018-05-21T15:04:13.520Z,21.90
2018-05-21T15:06:41.384Z,21.90
2018-05-21T15:09:08.907Z,21.90
2018-05-21T15:11:37.195Z,21.90
2018-05-21T15:14:05.475Z,21.90
2018-05-21T15:16:32.996Z,21.90
2018-05-21T15:19:01.278Z,21.90
2018-05-21T15:21:29.565Z,21.90
2018-05-21T15:23:57.908Z,21.90
2018-05-21T15:26:25.476Z,21.90
2018-05-21T15:28:53.045Z,21.90
2018-05-21T15:31:21.343Z,21.90
2018-05-21T15:33:49.622Z,21.90
2018-05-21T15:36:17.924Z,21.90
2018-05-21T15:38:45.452Z,21.90
2018-05-21T15:41:13.716Z,21.90
2018-05-21T15:43:42.007Z,21.90
2018-05-21T15:46:09.532Z,21.90
2018-05-21T15:48:38.588Z,21.90
2018-05-21T15:51:06.118Z,21.90
2018-05-21T15:53:33.631Z,21.90
2018-05-21T15:56:01.165Z,21.90
2018-05-21T15:58:29.221Z,21.90
2018-05-21T16:00:56.786Z,21.90
2018-05-21T16:03:24.314Z,21.90
2018-05-21T16:05:51.812Z,21.90
2018-05-21T16:08:19.354Z,21.90
2018-05-21T16:10:48.243Z,22.00
2018-05-21T16:13:15.771Z,21.90
2018-05-21T16:15:45.033Z,22.00
2018-05-21T16:18:12.563Z,21.90
2018-05-21T16:20:40.124Z,22.00
2018-05-21T16:23:07.639Z,21.90
2018-05-21T16:25:35.923Z,22.00
2018-05-21T16:28:03.492Z,21.90
2018-05-21T16:30:31.023Z,22.00
2018-05-21T16:32:59.301Z,22.00
2018-05-21T16:35:27.652Z,22.00
2018-05-21T16:37:55.578Z,22.00
2018-05-21T16:40:24.161Z,22.00
2018-05-21T16:42:51.713Z,21.90
2018-05-21T16:45:19.261Z,22.00
2018-05-21T16:47:46.830Z,22.00
2018-05-21T16:50:15.076Z,22.00
2018-05-21T16:52:42.624Z,22.00
2018-05-21T16:55:11.460Z,22.00
2018-05-21T16:57:40.140Z,22.00
2018-05-21T17:00:07.734Z,22.00
2018-05-21T17:02:35.236Z,22.00
2018-05-21T17:05:02.731Z,22.00
2018-05-21T17:07:30.247Z,22.00
2018-05-21T17:09:59.727Z,22.00
2018-05-21T17:12:28.031Z,22.00
2018-05-21T17:14:55.599Z,22.00
2018-05-21T17:17:23.120Z,22.00
2018-05-21T17:19:50.704Z,22.00
2018-05-21T17:22:19.184Z,22.00
2018-05-21T17:24:47.073Z,22.00
2018-05-21T17:27:14.935Z,22.00
2018-05-21T17:29:42.796Z,22.00
2018-05-21T17:32:11.292Z,22.00
2018-05-21T17:34:40.174Z,22.00
2018-05-21T17:37:08.750Z,22.10
2018-05-21T17:39:36.414Z,22.00
2018-05-21T17:42:05.276Z,22.00
2018-05-21T17:44:34.826Z,22.10
2018-05-21T17:47:02.333Z,22.10
2018-05-21T17:49:30.619Z,22.10
2018-05-21T17:51:58.127Z,22.00
2018-05-21T17:54:25.695Z,22.10
2018-05-21T17:56:53.283Z,22.10
2018-05-21T17:59:20.819Z,22.10
2018-05-21T18:01:48.330Z,22.10
2018-05-21T18:04:15.856Z,22.10
2018-05-21T18:06:44.303Z,22.10
2018-05-21T18:09:12.614Z,22.10
2018-05-21T18:11:40.116Z,22.10
2018-05-21T18:14:07.619Z,22.10
2018-05-21T18:19:10.629Z,22.10
2018-05-21T18:21:38.160Z,22.10
2018-05-21T18:24:05.675Z,22.10
2018-05-21T18:26:33.209Z,22.10
2018-05-21T18:29:00.747Z,22.10
2018-05-21T18:31:29.044Z,22.10
2018-05-21T18:33:56.552Z,22.10
2018-05-21T18:36:24.072Z,22.20
2018-05-21T18:38:51.575Z,22.10
2018-05-21T18:41:21.554Z,22.10
2018-05-21T18:43:49.084Z,22.10
2018-05-21T18:46:16.597Z,22.20
2018-05-21T18:48:44.931Z,22.20
2018-05-21T18:51:12.427Z,22.10
2018-05-21T18:53:39.984Z,22.20
2018-05-21T18:56:07.492Z,22.20
2018-05-21T18:58:36.992Z,22.20
2018-05-21T19:01:04.495Z,22.20
2018-05-21T19:03:31.997Z,22.20
2018-05-21T19:06:00.336Z,22.20
2018-05-21T19:08:28.674Z,22.20
2018-05-21T19:10:56.207Z,22.20
2018-05-21T19:13:24.479Z,22.20
2018-05-21T19:15:52.757Z,22.20
2018-05-21T19:18:21.024Z,22.20
2018-05-21T19:20:49.330Z,22.20
2018-05-21T19:23:16.826Z,22.20
2018-05-21T19:25:44.331Z,22.20
2018-05-21T19:28:11.864Z,22.20
2018-05-21T19:30:40.401Z,22.20
2018-05-21T19:33:07.944Z,22.20
2018-05-21T19:35:35.469Z,22.20
2018-05-21T19:38:03.753Z,22.20
2018-05-21T19:40:31.271Z,22.20
2018-05-21T19:42:59.592Z,22.20
2018-05-21T19:45:27.116Z,22.20
2018-05-21T19:47:56.381Z,22.20
2018-05-21T19:50:23.889Z,22.20
2018-05-21T19:52:52.162Z,22.20
2018-05-21T19:55:20.468Z,22.20
2018-05-21T19:57:48.126Z,22.20
2018-05-21T20:00:15.661Z,22.20
2018-05-21T20:02:43.930Z,22.30
2018-05-21T20:05:12.229Z,22.30
2018-05-21T20:07:39.758Z,22.20
2018-05-21T20:10:08.024Z,22.30
2018-05-21T20:12:37.555Z,22.30
2018-05-21T20:15:05.827Z,22.30
2018-05-21T20:17:36.100Z,22.30
2018-05-21T20:20:03.609Z,22.30
2018-05-21T20:22:31.136Z,22.30
2018-05-21T20:25:00.149Z,22.30
2018-05-21T20:27:28.440Z,22.30
2018-05-21T20:29:55.948Z,22.30
2018-05-21T20:32:24.373Z,22.30
2018-05-21T20:34:52.494Z,22.30
2018-05-21T20:37:20.016Z,22.30
2018-05-21T20:39:47.563Z,22.30
2018-05-21T20:42:15.096Z,22.30
2018-05-21T20:44:43.387Z,22.30
2018-05-21T20:47:11.656Z,22.30
2018-05-21T20:49:39.953Z,22.30
2018-05-21T20:52:08.429Z,22.30
2018-05-21T20:54:35.934Z,22.30
2018-05-21T20:57:03.459Z,22.30
2018-05-21T20:59:30.957Z,22.30
2018-05-21T21:01:58.487Z,22.30
2018-05-21T21:04:25.999Z,22.30
2018-05-21T21:06:56.242Z,22.30
2018-05-21T21:09:23.743Z,22.30
2018-05-21T21:11:51.251Z,22.30
2018-05-21T21:14:18.787Z,22.30
2018-05-21T21:16:47.071Z,22.30
2018-05-21T21:19:15.356Z,22.30
2018-05-21T21:21:43.827Z,22.30
2018-05-21T21:24:12.112Z,22.30
2018-05-21T21:26:39.622Z,22.30
2018-05-21T21:29:07.156Z,22.30
2018-05-21T21:31:34.659Z,22.30
2018-05-21T21:34:02.937Z,22.30
2018-05-21T21:36:31.233Z,22.40
2018-05-21T21:38:59.712Z,22.40
2018-05-21T21:41:27.245Z,22.40
2018-05-21T21:43:55.524Z,22.40
2018-05-21T21:46:23.060Z,22.40
2018-05-21T21:48:51.515Z,22.40
2018-05-21T21:51:19.021Z,22.40
2018-05-21T21:53:47.312Z,22.40
2018-05-21T21:56:15.787Z,22.40
2018-05-21T21:58:43.320Z,22.40
2018-05-21T22:01:10.827Z,22.40
2018-05-21T22:03:38.361Z,22.40
2018-05-21T22:06:05.879Z,22.40
2018-05-21T22:08:33.411Z,22.40
2018-05-21T22:11:00.958Z,22.40
2018-05-21T22:13:28.467Z,22.40
2018-05-21T22:15:56.063Z,22.40
2018-05-21T22:18:23.512Z,22.40
2018-05-21T22:20:51.032Z,22.40
2018-05-21T22:23:18.534Z,22.40
2018-05-21T22:25:46.064Z,22.40
2018-05-21T22:28:14.575Z,22.40
2018-05-21T22:30:43.380Z,22.40
2018-05-21T22:33:11.051Z,22.40
2018-05-21T22:35:38.891Z,22.40
2018-05-21T22:38:06.856Z,22.40
2018-05-21T22:40:35.646Z,22.40
2018-05-21T22:43:03.510Z,22.40
2018-05-21T22:45:31.423Z,22.40
2018-05-21T22:48:00.062Z,22.40
2018-05-21T22:50:27.822Z,22.40
2018-05-21T22:52:55.709Z,22.40
2018-05-21T22:55:23.453Z,22.40
2018-05-21T22:57:51.319Z,22.40
2018-05-21T23:00:19.182Z,22.50
2018-05-21T23:02:46.780Z,22.40
2018-05-21T23:05:15.887Z,22.40
2018-05-21T23:07:44.281Z,22.50
2018-05-21T23:10:12.616Z,22.40
2018-05-21T23:12:40.144Z,22.40
2018-05-21T23:15:07.646Z,22.50
2018-05-21T23:17:36.679Z,22.40
2018-05-21T23:20:04.181Z,22.40
2018-05-21T23:22:50.597Z,22.40
2018-05-21T23:25:18.104Z,22.40
2018-05-21T23:27:45.675Z,22.40
2018-05-21T23:30:13.186Z,22.50
2018-05-21T23:32:41.485Z,22.50
2018-05-21T23:35:08.995Z,22.40
2018-05-21T23:37:36.499Z,22.40
2018-05-21T23:40:04.024Z,22.50
2018-05-21T23:42:31.532Z,22.50
2018-05-21T23:44:59.055Z,22.50
2018-05-21T23:47:27.320Z,22.50
2018-05-21T23:49:55.600Z,22.50
2018-05-21T23:52:23.912Z,22.50
2018-05-21T23:54:52.386Z,22.50
2018-05-21T23:57:19.929Z,22.50
2018-05-21T23:59:47.517Z,22.50
